Time;durP1;ratioP1;P1;durP2;ratioP2;P2;SDS_P1;SDS_P2;PMS_P1;PMS_P2;Temp;Humidity;BMP_temperature;BMP_pressure;BME280_temperature;BME280_humidity;BME280_pressure;Samples;Min_cycle;Max_cycle;Signal;HPM_P1;HPM_P2
2023/04/16 00:00:43;;;;;;;31.00;15.02;;;;;;;16.48;100.00;100981.66;2077428;28;20131;-73
2023/04/16 00:02:06;;;;;;;26.45;15.00;;;;;;;16.46;100.00;100980.81;2068531;28;20229;-73
2023/04/16 00:03:28;;;;;;;30.60;15.52;;;;;;;16.46;100.00;100980.81;2077228;28;20071;-74
2023/04/16 00:04:50;;;;;;;33.65;14.85;;;;;;;16.45;100.00;100973.69;2077080;28;20049;-74
2023/04/16 00:06:12;;;;;;;31.20;15.63;;;;;;;16.45;100.00;100981.69;2085151;28;20049;-74
2023/04/16 00:07:34;;;;;;;31.33;15.10;;;;;;;16.45;100.00;100970.16;2078581;28;20532;-73
2023/04/16 00:08:56;;;;;;;34.03;16.60;;;;;;;16.45;100.00;100973.69;2077325;28;20398;-74
2023/04/16 00:10:17;;;;;;;30.52;17.20;;;;;;;16.45;100.00;100970.16;2077209;28;20046;-73
2023/04/16 00:11:40;;;;;;;34.13;15.23;;;;;;;16.46;100.00;100975.47;2076920;28;20053;-74
2023/04/16 00:13:01;;;;;;;30.45;15.88;;;;;;;16.47;100.00;100979.91;2077203;28;20076;-74
2023/04/16 00:14:23;;;;;;;31.38;15.38;;;;;;;16.46;100.00;100979.91;2081800;28;20047;-74
2023/04/16 00:15:47;;;;;;;29.27;14.65;;;;;;;16.48;100.00;100973.66;2061638;28;20439;-73
2023/04/16 00:17:09;;;;;;;28.65;14.23;;;;;;;16.47;100.00;100982.59;2074658;28;20597;-74
2023/04/16 00:18:31;;;;;;;32.28;14.27;;;;;;;16.47;100.00;100979.03;2076210;28;20052;-74
2023/04/16 00:19:53;;;;;;;28.88;14.50;;;;;;;16.47;100.00;100982.59;2068999;28;20406;-74
2023/04/16 00:21:16;;;;;;;31.17;14.38;;;;;;;16.47;100.00;100976.38;2074371;28;20144;-73
2023/04/16 00:22:39;;;;;;;30.20;14.95;;;;;;;16.46;100.00;100978.16;2079598;28;20589;-73
2023/04/16 00:24:00;;;;;;;31.58;15.75;;;;;;;16.45;100.00;100975.47;2076580;28;20527;-74
2023/04/16 00:25:22;;;;;;;27.05;15.13;;;;;;;16.43;100.00;100975.47;2076721;28;20046;-74
2023/04/16 00:26:45;;;;;;;28.60;15.27;;;;;;;16.42;100.00;100981.69;2076297;28;20252;-74
2023/04/16 00:28:06;;;;;;;27.70;14.95;;;;;;;16.41;100.00;100965.75;2077764;28;20060;-73
2023/04/16 00:29:29;;;;;;;28.13;15.20;;;;;;;16.39;100.00;100968.41;2073100;28;20041;-74
2023/04/16 00:30:52;;;;;;;31.98;17.00;;;;;;;16.37;100.00;100967.53;2076638;28;20045;-73
2023/04/16 00:32:15;;;;;;;34.13;16.38;;;;;;;16.37;100.00;100963.97;2072306;28;20605;-74
2023/04/16 00:33:36;;;;;;;30.33;16.00;;;;;;;16.34;100.00;100962.22;2061869;28;20049;-73
2023/04/16 00:34:58;;;;;;;28.30;16.70;;;;;;;16.34;100.00;100959.56;2062318;28;20054;-74
2023/04/16 00:36:20;;;;;;;26.42;15.65;;;;;;;16.34;100.00;100963.06;2075561;28;20065;-74
2023/04/16 00:37:42;;;;;;;37.63;15.95;;;;;;;16.35;100.00;100967.53;2069840;28;20085;-73
2023/04/16 00:39:04;;;;;;;32.33;17.08;;;;;;;16.35;100.00;100969.28;2066925;28;20100;-74
2023/04/16 00:40:28;;;;;;;29.88;15.55;;;;;;;16.33;100.00;100963.09;2070780;28;20053;-73
2023/04/16 00:41:49;;;;;;;34.28;15.07;;;;;;;16.31;100.00;100964.88;2062535;28;20081;-73
2023/04/16 00:43:20;;;;;;;31.13;16.50;;;;;;;16.30;100.00;100963.09;2060622;28;20046;-73
2023/04/16 00:44:41;;;;;;;28.73;16.38;;;;;;;16.28;100.00;100967.53;2073644;28;20080;-74
2023/04/16 00:46:06;;;;;;;29.48;16.83;;;;;;;16.25;100.00;100968.47;2082612;28;20142;-73
2023/04/16 00:47:29;;;;;;;33.53;16.13;;;;;;;16.22;100.00;100965.81;2065136;28;20053;-74
2023/04/16 00:48:51;;;;;;;32.35;16.08;;;;;;;16.21;100.00;100956.03;2080539;28;20049;-73
2023/04/16 00:50:14;;;;;;;32.00;15.75;;;;;;;16.19;100.00;100960.50;2064959;28;20506;-74
2023/04/16 00:51:36;;;;;;;36.38;17.58;;;;;;;16.17;100.00;100969.38;2068332;28;20054;-74
2023/04/16 00:52:58;;;;;;;30.70;15.75;;;;;;;16.13;100.00;100965.84;2073239;28;20046;-74
2023/04/16 00:54:21;;;;;;;31.02;15.13;;;;;;;16.11;100.00;100970.28;2074235;28;20100;-74
2023/04/16 00:55:43;;;;;;;;;;;;;;;16.09;100.00;100976.50;2084762;28;20148;-73
2023/04/16 00:57:06;;;;;;;31.30;16.95;;;;;;;16.06;100.00;100976.53;2078377;28;19960;-74
2023/04/16 00:58:29;;;;;;;31.55;17.05;;;;;;;16.07;100.00;100978.31;2071505;28;20494;-74
2023/04/16 00:59:51;;;;;;;35.95;18.80;;;;;;;16.04;100.00;100970.31;2076321;28;20061;-74
2023/04/16 01:01:15;;;;;;;39.92;19.38;;;;;;;16.03;100.00;100968.53;2077259;28;20042;-74
2023/04/16 01:02:36;;;;;;;30.58;17.23;;;;;;;16.01;100.00;100967.69;2072057;28;20141;-73
2023/04/16 01:03:58;;;;;;;28.45;17.00;;;;;;;15.99;100.00;100965.03;2078637;28;20053;-74
2023/04/16 01:05:22;;;;;;;34.50;17.88;;;;;;;15.94;100.00;100973.03;2078619;28;20072;-74
2023/04/16 01:06:43;;;;;;;36.22;19.60;;;;;;;15.91;100.00;100973.03;2078377;28;20528;-74
2023/04/16 01:08:06;;;;;;;34.63;18.60;;;;;;;15.89;100.00;100974.78;2069600;28;20493;-74
2023/04/16 01:09:28;;;;;;;41.33;19.27;;;;;;;15.88;100.00;100980.16;2062051;28;20046;-74
2023/04/16 01:10:50;;;;;;;39.00;20.45;;;;;;;15.85;100.00;100975.72;2070042;28;20708;-73
2023/04/16 01:12:12;;;;;;;36.55;20.50;;;;;;;15.83;100.00;100971.25;2062554;28;20130;-74
2023/04/16 01:13:38;;;;;;;34.85;19.13;;;;;;;15.83;100.00;100966.81;2070710;28;20779;-74
2023/04/16 01:15:00;;;;;;;33.65;20.17;;;;;;;15.85;100.00;100965.06;2083236;28;20044;-74
2023/04/16 01:16:25;;;;;;;38.58;20.17;;;;;;;15.88;100.00;100966.84;2080166;28;20042;-74
2023/04/16 01:17:48;;;;;;;33.75;20.95;;;;;;;15.87;100.00;100967.72;2070496;28;20297;-74
2023/04/16 01:19:10;;;;;;;38.03;21.63;;;;;;;15.85;100.00;100969.50;2070290;28;20524;-73
2023/04/16 01:20:35;;;;;;;43.33;22.48;;;;;;;15.83;100.00;100957.94;2075864;28;20525;-74
2023/04/16 01:21:58;;;;;;;37.38;22.17;;;;;;;15.80;100.00;100961.53;2062104;28;20125;-74
2023/04/16 01:23:21;;;;;;;40.53;21.42;;;;;;;15.79;100.00;100961.53;2068850;28;20053;-73
2023/04/16 01:24:43;;;;;;;46.20;22.95;;;;;;;15.78;100.00;100963.28;2067033;28;20045;-74
2023/04/16 01:26:05;;;;;;;41.42;22.92;;;;;;;15.78;100.00;100960.63;2069198;28;20107;-73
2023/04/16 01:27:27;;;;;;;45.83;23.60;;;;;;;15.77;100.00;100961.53;2074793;28;20096;-74
2023/04/16 01:28:48;;;;;;;43.00;25.83;;;;;;;15.75;100.00;100952.63;2078345;28;20056;-74
2023/04/16 01:30:11;;;;;;;49.50;31.42;;;;;;;15.69;100.00;100949.09;2069172;28;20041;-74
2023/04/16 01:31:45;;;;;;;72.18;41.13;;;;;;;15.61;100.00;100948.25;2069565;28;20070;-74
2023/04/16 01:33:26;;;;;;;41.45;25.67;;;;;;;15.46;100.00;100943.81;2085597;28;20056;-73
2023/04/16 01:34:47;;;;;;;47.95;28.80;;;;;;;15.34;100.00;100949.16;2064737;28;20469;-74
2023/04/16 01:36:11;;;;;;;36.30;23.45;;;;;;;15.22;100.00;100946.50;2067331;28;20077;-75
2023/04/16 01:37:33;;;;;;;34.28;19.33;;;;;;;15.12;100.00;100951.81;2070275;28;20052;-73
2023/04/16 01:38:55;;;;;;;33.60;20.13;;;;;;;15.09;100.00;100954.50;2069204;28;20061;-74
2023/04/16 01:40:18;;;;;;;31.20;18.48;;;;;;;15.10;100.00;100956.22;2064027;28;20034;-74
2023/04/16 01:41:42;;;;;;;30.65;17.67;;;;;;;15.09;100.00;100945.63;2058584;28;20058;-74
2023/04/16 01:43:05;;;;;;;28.83;17.67;;;;;;;15.06;100.00;100942.94;2065902;28;20494;-74
2023/04/16 01:44:27;;;;;;;29.58;17.90;;;;;;;15.02;100.00;100942.06;2075531;28;20046;-74
2023/04/16 01:45:50;;;;;;;29.20;18.25;;;;;;;15.00;100.00;100941.19;2083817;28;20040;-74
2023/04/16 01:47:13;;;;;;;30.63;17.75;;;;;;;14.95;100.00;100940.28;2072700;28;20718;-74
2023/04/16 01:48:34;;;;;;;30.27;16.95;;;;;;;14.87;100.00;100931.44;2075585;28;20053;-74
2023/04/16 01:49:57;;;;;;;25.60;16.13;;;;;;;14.80;100.00;100934.06;2082357;28;20048;-74
2023/04/16 01:51:21;;;;;;;29.80;16.65;;;;;;;14.78;100.00;100931.41;2078022;28;20104;-74
2023/04/16 01:52:42;;;;;;;31.83;17.83;;;;;;;14.82;100.00;100933.19;2070335;28;20116;-73
2023/04/16 01:54:05;;;;;;;31.17;17.92;;;;;;;14.87;100.00;100919.91;2070053;28;20053;-74
2023/04/16 01:55:27;;;;;;;29.20;19.17;;;;;;;14.93;100.00;100925.22;2074639;28;20050;-74
2023/04/16 01:56:48;;;;;;;29.77;18.60;;;;;;;14.97;100.00;100921.66;2068640;28;20049;-74
2023/04/16 01:58:13;;;;;;;37.50;20.52;;;;;;;15.00;100.00;100929.66;2067423;28;20042;-74
2023/04/16 01:59:34;;;;;;;37.10;18.85;;;;;;;15.02;100.00;100928.78;2067924;28;20123;-74
2023/04/16 02:00:57;;;;;;;38.35;19.27;;;;;;;15.04;100.00;100923.44;2067234;28;20060;-74
2023/04/16 02:02:19;;;;;;;30.23;19.30;;;;;;;15.03;100.00;100925.22;2083780;28;20041;-74
2023/04/16 02:03:40;;;;;;;27.95;18.10;;;;;;;14.98;100.00;100929.66;2079213;28;20070;-73
2023/04/16 02:05:03;;;;;;;29.13;17.85;;;;;;;14.92;100.00;100932.31;2070063;28;20054;-74
2023/04/16 02:06:27;;;;;;;36.05;19.17;;;;;;;14.88;100.00;100927.00;2071252;28;20054;-74
2023/04/16 02:07:49;;;;;;;36.65;19.63;;;;;;;14.87;100.00;100931.44;2066930;28;20515;-73
2023/04/16 02:09:11;;;;;;;35.08;20.88;;;;;;;14.90;100.00;100926.09;2067479;28;20041;-74
2023/04/16 02:10:34;;;;;;;36.10;21.35;;;;;;;14.92;100.00;100921.66;2069710;28;20052;-74
2023/04/16 02:11:56;;;;;;;33.42;19.13;;;;;;;14.93;100.00;100918.13;2075409;28;20057;-74
2023/04/16 02:13:19;;;;;;;32.70;18.60;;;;;;;14.92;100.00;100918.13;2071532;28;20080;-74
2023/04/16 02:14:42;;;;;;;29.05;17.13;;;;;;;14.87;100.00;100914.59;2078183;28;20050;-74
2023/04/16 02:16:07;;;;;;;29.27;18.60;;;;;;;14.80;100.00;100911.03;2070013;28;20424;-74
2023/04/16 02:17:59;;;;;;;35.75;18.02;;;;;;;14.69;100.00;100919.00;2069996;28;20428;-74
2023/04/16 02:19:21;;;;;;;30.98;15.90;;;;;;;14.64;100.00;100917.22;2078048;28;20051;-74
2023/04/16 02:20:45;;;;;;;26.20;16.05;;;;;;;14.58;100.00;100914.53;2070064;28;20422;-74
2023/04/16 02:22:09;;;;;;;27.45;15.55;;;;;;;14.52;100.00;100910.09;2067839;28;20045;-74
2023/04/16 02:23:31;;;;;;;25.73;15.93;;;;;;;14.46;100.00;100898.59;2073868;28;20072;-75
2023/04/16 02:24:54;;;;;;;26.83;16.45;;;;;;;14.39;100.00;100897.69;2069560;28;20053;-73
2023/04/16 02:26:16;;;;;;;27.70;15.70;;;;;;;14.33;100.00;100901.19;2068778;28;20510;-74
2023/04/16 02:27:38;;;;;;;29.42;16.30;;;;;;;14.29;100.00;100898.53;2074493;28;20053;-75
2023/04/16 02:29:15;;;;;;;32.03;17.98;;;;;;;14.28;100.00;100902.06;2071589;28;20038;-73
2023/04/16 02:30:42;;;;;;;30.92;17.73;;;;;;;14.34;100.00;100908.28;2068217;28;20080;-74
2023/04/16 02:32:06;;;;;;;29.33;16.88;;;;;;;14.43;100.00;100906.56;2066933;28;20510;-75
2023/04/16 02:33:30;;;;;;;31.55;17.30;;;;;;;14.48;100.00;100905.69;2065738;28;20053;-74
2023/04/16 02:34:57;;;;;;;30.38;19.05;;;;;;;14.53;100.00;100895.94;2068041;28;20490;-74
2023/04/16 02:36:20;;;;;;;34.67;19.92;;;;;;;14.57;100.00;100896.84;2074435;28;20136;-74
2023/04/16 02:37:43;;;;;;;35.00;20.92;;;;;;;14.62;100.00;100903.06;2069146;28;20105;-75
2023/04/16 02:39:05;;;;;;;33.33;20.08;;;;;;;14.64;100.00;100910.13;2063606;28;20050;-75
2023/04/16 02:40:27;;;;;;;39.47;20.73;;;;;;;14.66;100.00;100902.16;2068346;28;20096;-74
2023/04/16 02:41:49;;;;;;;35.88;19.80;;;;;;;14.66;100.00;100896.84;2069938;28;20084;-75
2023/04/16 02:43:12;;;;;;;34.47;19.30;;;;;;;14.68;100.00;100895.97;2075244;28;20096;-74
2023/04/16 02:44:34;;;;;;;30.73;18.88;;;;;;;14.66;100.00;100903.06;2077662;28;20037;-75
2023/04/16 02:45:55;;;;;;;31.85;18.05;;;;;;;14.62;100.00;100919.88;2077898;28;20437;-74
2023/04/16 02:47:18;;;;;;;27.30;17.38;;;;;;;14.59;100.00;100922.53;2069914;28;20049;-75
2023/04/16 02:48:39;;;;;;;29.70;18.02;;;;;;;14.60;100.00;100937.59;2075349;28;20048;-74
2023/04/16 02:50:01;;;;;;;30.10;18.00;;;;;;;14.61;100.00;100934.06;2077459;28;20053;-75
2023/04/16 02:51:22;;;;;;;31.15;20.08;;;;;;;14.66;100.00;100931.38;2077505;28;20393;-74
2023/04/16 02:52:46;;;;;;;25.70;18.38;;;;;;;14.67;100.00;100914.56;2069296;28;20372;-74
2023/04/16 02:54:08;;;;;;;32.30;18.90;;;;;;;14.66;100.00;100919.00;2067107;28;20061;-74
2023/04/16 02:55:30;;;;;;;34.88;20.23;;;;;;;14.63;100.00;100932.28;2065390;28;20046;-74
2023/04/16 02:56:52;;;;;;;34.40;18.80;;;;;;;14.61;100.00;100930.50;2082998;28;20140;-73
2023/04/16 02:58:13;;;;;;;31.35;18.80;;;;;;;14.59;100.00;100921.63;2070562;28;20048;-73
2023/04/16 02:59:37;;;;;;;28.33;18.30;;;;;;;14.57;100.00;100924.28;2066308;28;20451;-74
2023/04/16 03:00:58;;;;;;;33.20;19.20;;;;;;;14.58;100.00;100923.41;2074645;28;20128;-74
2023/04/16 03:02:21;;;;;;;34.22;18.08;;;;;;;14.60;100.00;100920.75;2069445;28;20076;-74
2023/04/16 03:03:43;;;;;;;32.72;18.55;;;;;;;14.59;100.00;100919.88;2066664;28;20452;-73
2023/04/16 03:05:05;;;;;;;32.05;18.13;;;;;;;14.58;100.00;100909.22;2065185;28;20050;-74
2023/04/16 03:06:27;;;;;;;;;;;;;;;14.55;100.00;100906.59;2067193;28;20089;-74
2023/04/16 03:07:55;;;;;;;29.27;17.30;;;;;;;14.55;100.00;100906.59;2063822;28;19922;-73
2023/04/16 03:09:17;;;;;;;35.97;20.55;;;;;;;14.56;100.00;100911.91;2070129;28;20466;-71
2023/04/16 03:10:40;;;;;;;28.33;18.52;;;;;;;14.55;100.00;100915.44;2069139;28;20061;-73
2023/04/16 03:12:02;;;;;;;41.33;24.35;;;;;;;14.57;100.00;100918.13;2069570;28;20187;-74
2023/04/16 03:13:23;;;;;;;40.25;23.38;;;;;;;14.60;100.00;100915.44;2072175;28;20053;-74
2023/04/16 03:14:46;;;;;;;44.47;29.75;;;;;;;14.64;100.00;100919.88;2075516;28;20038;-73
2023/04/16 03:16:08;;;;;;;37.72;25.42;;;;;;;14.66;100.00;100916.34;2070520;28;20087;-74
2023/04/16 03:17:30;;;;;;;45.38;30.33;;;;;;;14.67;100.00;100910.16;2082778;28;20567;-74
2023/04/16 03:18:53;;;;;;;42.30;28.85;;;;;;;14.68;100.00;100911.03;2071972;28;20375;-75
2023/04/16 03:20:15;;;;;;;38.22;25.95;;;;;;;14.69;100.00;100910.16;2075020;28;20034;-74
2023/04/16 03:21:38;;;;;;;38.08;24.70;;;;;;;14.70;100.00;100917.25;2076569;28;20061;-74
2023/04/16 03:23:00;;;;;;;36.78;20.98;;;;;;;14.68;100.00;100919.91;2077535;28;20034;-75
2023/04/16 03:24:23;;;;;;;32.67;18.55;;;;;;;14.67;100.00;100914.56;2069516;28;20582;-74
2023/04/16 03:25:46;;;;;;;36.33;18.15;;;;;;;14.67;100.00;100917.22;2068770;28;20189;-74
2023/04/16 03:27:12;;;;;;;30.80;18.35;;;;;;;14.65;100.00;100909.25;2084580;28;20064;-75
2023/04/16 03:28:35;;;;;;;28.23;18.48;;;;;;;14.65;100.00;100916.31;2077794;28;20049;-75
2023/04/16 03:29:57;;;;;;;29.30;18.20;;;;;;;14.65;100.00;100913.66;2077832;28;20069;-74
2023/04/16 03:31:20;;;;;;;30.25;17.85;;;;;;;14.65;100.00;100916.31;2074884;28;20132;-75
2023/04/16 03:32:42;;;;;;;30.27;18.13;;;;;;;14.65;100.00;100919.88;2075157;28;20103;-75
2023/04/16 03:34:05;;;;;;;30.33;16.98;;;;;;;14.66;100.00;100913.69;2069924;28;20061;-74
2023/04/16 03:35:26;;;;;;;27.13;16.80;;;;;;;14.68;100.00;100914.59;2066789;28;20038;-75
2023/04/16 03:36:49;;;;;;;25.45;16.55;;;;;;;14.68;100.00;100919.91;2074918;28;20054;-74
2023/04/16 03:38:13;;;;;;;25.20;15.60;;;;;;;14.65;100.00;100924.31;2069546;28;20081;-74
2023/04/16 03:39:36;;;;;;;30.35;15.43;;;;;;;14.60;100.00;100923.41;2065623;28;20050;-73
2023/04/16 03:40:57;;;;;;;29.35;16.67;;;;;;;14.57;100.00;100923.44;2066205;28;20077;-75
2023/04/16 03:42:20;;;;;;;30.05;19.60;;;;;;;14.58;100.00;100930.47;2068841;28;20033;-75
2023/04/16 03:43:42;;;;;;;25.42;16.77;;;;;;;14.58;100.00;100922.50;2066704;28;20168;-74
2023/04/16 03:45:08;;;;;;;27.83;16.83;;;;;;;14.58;100.00;100930.47;2058551;28;20434;-74
2023/04/16 03:46:29;;;;;;;25.88;16.98;;;;;;;14.57;100.00;100924.28;2066896;28;20073;-74
2023/04/16 03:47:52;;;;;;;29.75;18.05;;;;;;;14.58;100.00;100920.75;2060240;28;20058;-73
2023/04/16 03:49:17;;;;;;;27.67;17.13;;;;;;;14.59;100.00;100926.94;2060296;28;20053;-75
2023/04/16 03:50:40;;;;;;;25.85;17.23;;;;;;;14.60;100.00;100921.66;2066093;28;20133;-74
2023/04/16 03:52:04;;;;;;;36.40;19.27;;;;;;;14.60;100.00;100926.06;2061443;28;20054;-73
2023/04/16 03:53:28;;;;;;;27.77;17.52;;;;;;;14.60;100.00;100928.72;2073125;28;20136;-73
2023/04/16 03:54:51;;;;;;;24.63;16.98;;;;;;;14.58;100.00;100917.19;2073964;28;20053;-74
2023/04/16 03:56:21;;;;;;;28.83;16.88;;;;;;;14.55;100.00;100930.50;2063397;28;20054;-73
2023/04/16 03:57:44;;;;;;;26.90;17.02;;;;;;;14.54;100.00;100924.28;2067192;28;20141;-74
2023/04/16 03:59:09;;;;;;;27.20;16.48;;;;;;;14.55;100.00;100933.16;2061259;28;20046;-74
2023/04/16 04:00:30;;;;;;;28.33;15.57;;;;;;;14.56;100.00;100935.81;2067739;28;20144;-74
2023/04/16 04:02:00;;;;;;;25.85;15.57;;;;;;;14.61;100.00;100928.75;2067983;28;20057;-73
2023/04/16 04:03:24;;;;;;;24.90;16.00;;;;;;;14.65;100.00;100927.84;2067626;28;20140;-74
2023/04/16 04:04:47;;;;;;;27.48;15.57;;;;;;;14.69;100.00;100931.41;2068270;28;20583;-74
2023/04/16 04:06:10;;;;;;;27.52;16.25;;;;;;;14.74;100.00;100930.53;2066293;28;20042;-73
2023/04/16 04:07:32;;;;;;;28.15;15.75;;;;;;;14.77;100.00;100932.28;2074589;28;20404;-74
2023/04/16 04:08:56;;;;;;;26.30;15.88;;;;;;;14.81;100.00;100927.88;2068925;28;20596;-73
2023/04/16 04:10:17;;;;;;;22.20;14.30;;;;;;;14.80;100.00;100926.97;2075792;28;20042;-74
2023/04/16 04:11:39;;;;;;;20.58;13.23;;;;;;;14.77;100.00;100934.94;2064130;28;20056;-74
2023/04/16 04:13:03;;;;;;;24.35;13.07;;;;;;;14.73;100.00;100927.84;2074639;28;20165;-74
2023/04/16 04:14:25;;;;;;;26.00;12.70;;;;;;;14.72;100.00;100926.09;2071691;28;20057;-73
2023/04/16 04:15:46;;;;;;;20.63;12.50;;;;;;;14.73;100.00;100927.84;2065935;28;20050;-74
2023/04/16 04:17:09;;;;;;;21.77;11.65;;;;;;;14.74;100.00;100930.53;2065992;28;20145;-74
2023/04/16 04:18:30;;;;;;;20.65;12.00;;;;;;;14.77;100.00;100931.44;2076406;28;20046;-74
2023/04/16 04:19:55;;;;;;;22.48;12.15;;;;;;;14.77;100.00;100937.59;2061235;28;20058;-74
2023/04/16 04:21:17;;;;;;;20.20;12.10;;;;;;;14.75;100.00;100940.28;2070810;28;20054;-74
2023/04/16 04:22:39;;;;;;;23.88;12.70;;;;;;;14.75;100.00;100934.97;2077178;28;20041;-73
2023/04/16 04:24:03;;;;;;;23.70;11.82;;;;;;;14.75;100.00;100937.63;2068650;28;20142;-74
2023/04/16 04:25:27;;;;;;;20.00;11.88;;;;;;;14.71;100.00;100935.81;2068596;28;20639;-74
2023/04/16 04:26:49;;;;;;;20.67;11.65;;;;;;;14.70;100.00;100934.03;2067980;28;20054;-73
2023/04/16 04:28:11;;;;;;;22.73;12.00;;;;;;;14.72;100.00;100937.59;2058685;28;20050;-74
2023/04/16 04:29:34;;;;;;;20.85;11.68;;;;;;;14.77;100.00;100933.16;2058227;28;20049;-74
2023/04/16 04:30:57;;;;;;;19.30;11.93;;;;;;;14.88;100.00;100935.88;2064588;28;20061;-74
2023/04/16 04:32:18;;;;;;;23.38;12.35;;;;;;;14.98;100.00;100934.06;2069192;28;20352;-74
2023/04/16 04:33:43;;;;;;;21.65;12.25;;;;;;;15.10;100.00;100936.72;2066847;28;20406;-74
2023/04/16 04:35:06;;;;;;;18.50;11.95;;;;;;;15.22;100.00;100941.19;2064255;28;20140;-74
2023/04/16 04:36:28;;;;;;;24.30;11.60;;;;;;;15.31;100.00;100938.50;2067686;28;20056;-74
2023/04/16 04:37:50;;;;;;;18.83;10.68;;;;;;;15.37;100.00;100934.06;2067729;28;20509;-74
2023/04/16 04:39:16;;;;;;;17.35;10.43;;;;;;;15.44;100.00;100930.50;2069562;28;20054;-74
2023/04/16 04:40:39;;;;;;;17.58;10.32;;;;;;;15.47;100.00;100935.84;2061122;28;20043;-74
2023/04/16 04:42:01;;;;;;;20.35;10.20;;;;;;;15.47;100.00;100941.16;2066206;28;20576;-74
2023/04/16 04:43:24;;;;;;;18.98;10.00;;;;;;;15.50;100.00;100932.25;2077193;28;20041;-74
2023/04/16 04:44:46;;;;;;;15.00;10.05;;;;;;;15.50;100.00;100938.47;2071035;28;20046;-74
2023/04/16 04:46:08;;;;;;;24.35;11.18;;;;;;;15.46;100.00;100939.38;2067450;28;20073;-74
2023/04/16 04:47:29;;;;;;;16.50;10.73;;;;;;;15.38;100.00;100945.59;2068731;28;20154;-74
2023/04/16 04:48:52;;;;;;;20.42;11.02;;;;;;;15.33;100.00;100939.41;2065067;28;20078;-74
2023/04/16 04:50:14;;;;;;;19.75;10.73;;;;;;;15.30;100.00;100934.94;2066162;28;20514;-74
2023/04/16 04:51:36;;;;;;;18.00;11.18;;;;;;;15.33;100.00;100940.28;2060650;28;20093;-74
2023/04/16 04:52:59;;;;;;;16.73;11.05;;;;;;;15.40;100.00;100950.03;2066370;28;20045;-74
2023/04/16 04:54:22;;;;;;;22.05;11.60;;;;;;;15.46;100.00;100949.13;2071920;28;20045;-74
2023/04/16 04:55:45;;;;;;;24.50;12.05;;;;;;;15.51;100.00;100944.69;2069074;28;20057;-74
2023/04/16 04:57:06;;;;;;;20.30;12.05;;;;;;;15.54;100.00;100950.06;2077017;28;20140;-74
2023/04/16 04:58:29;;;;;;;;;;;;;;;15.53;100.00;100946.50;2077498;28;20073;-74
2023/04/16 04:59:50;;;;;;;;;;;;;;;15.53;100.00;100954.47;2071915;28;20365;-74
2023/04/16 05:01:13;;;;;;;20.50;10.75;;;;;;;15.56;100.00;100956.22;2070545;28;19936;-74
2023/04/16 05:02:35;;;;;;;17.10;10.85;;;;;;;15.58;100.00;100973.09;2073156;28;20456;-74
2023/04/16 05:03:57;;;;;;;17.73;10.38;;;;;;;15.61;100.00;100975.75;2075172;28;20703;-74
2023/04/16 05:05:18;;;;;;;24.35;11.75;;;;;;;15.69;100.00;100971.28;2069783;28;20497;-73
2023/04/16 05:06:41;;;;;;;22.50;11.15;;;;;;;15.76;100.00;100970.38;2074402;28;20490;-75
2023/04/16 05:08:04;;;;;;;17.27;10.68;;;;;;;15.84;100.00;100967.72;2077062;28;20037;-73
2023/04/16 05:09:26;;;;;;;20.38;11.43;;;;;;;15.96;100.00;100967.69;2076898;28;20047;-74
2023/04/16 05:10:49;;;;;;;19.48;11.18;;;;;;;16.04;100.00;100976.53;2068377;28;20529;-74
2023/04/16 05:12:10;;;;;;;20.17;11.23;;;;;;;16.14;100.00;100972.06;2071811;28;20057;-74
2023/04/16 05:13:32;;;;;;;18.05;11.10;;;;;;;16.21;100.00;100968.50;2071733;28;20053;-74
2023/04/16 05:14:53;;;;;;;18.20;10.50;;;;;;;16.28;100.00;100971.09;2076633;28;20103;-74
2023/04/16 05:16:16;;;;;;;21.45;11.63;;;;;;;16.34;100.00;100962.22;2075674;28;20464;-73
2023/04/16 05:17:37;;;;;;;17.75;10.43;;;;;;;16.38;100.00;100968.41;2076844;28;20132;-74
2023/04/16 05:18:59;;;;;;;23.67;10.98;;;;;;;16.38;100.00;100961.31;2071455;28;20545;-74
2023/04/16 05:20:22;;;;;;;23.17;11.23;;;;;;;16.41;100.00;100963.06;2073008;28;20734;-74
2023/04/16 05:21:45;;;;;;;22.02;11.50;;;;;;;16.43;100.00;100958.59;2068154;28;20046;-74
2023/04/16 05:23:07;;;;;;;20.20;10.48;;;;;;;16.47;100.00;100963.94;2078584;28;20057;-74
2023/04/16 05:24:31;;;;;;;19.40;10.32;;;;;;;16.49;100.00;100962.13;2072551;28;20196;-74
2023/04/16 05:25:52;;;;;;;22.42;10.75;;;;;;;16.51;100.00;100968.34;2066747;28;20056;-74
2023/04/16 05:27:15;;;;;;;19.38;10.95;;;;;;;16.52;100.00;100964.78;2074790;28;20049;-74
2023/04/16 05:28:36;;;;;;;21.10;12.60;;;;;;;16.54;100.00;100964.78;2079996;28;20140;-74
2023/04/16 05:29:58;;;;;;;23.55;12.23;;;;;;;16.56;100.00;100966.53;2064771;28;20674;-74
2023/04/16 05:31:19;;;;;;;20.83;11.23;;;;;;;16.61;100.00;100962.06;2075842;28;20049;-74
2023/04/16 05:32:42;;;;;;;24.02;11.77;;;;;;;16.69;100.00;100954.94;2078433;28;20042;-74
2023/04/16 05:34:03;;;;;;;20.85;9.40;;;;;;;16.79;100.00;100958.44;2068290;28;20128;-74
2023/04/16 05:35:26;;;;;;;21.90;9.65;;;;;;;16.91;100.00;100961.00;2067457;28;20697;-74
2023/04/16 05:36:49;;;;;;;16.40;10.13;;;;;;;17.08;100.00;100960.88;2070114;28;20042;-73
2023/04/16 05:38:10;;;;;;;23.73;13.23;;;;;;;17.30;100.00;100961.59;2062080;28;20042;-75
2023/04/16 05:39:34;;;;;;;23.00;13.57;;;;;;;17.59;100.00;100964.00;2071517;28;20053;-74
2023/04/16 05:40:58;;;;;;;24.92;14.27;;;;;;;17.85;100.00;100961.97;2078041;28;20042;-74
2023/04/16 05:42:19;;;;;;;30.05;17.90;;;;;;;18.12;100.00;100956.28;2078480;28;20050;-74
2023/04/16 05:43:42;;;;;;;29.75;18.67;;;;;;;18.41;100.00;100957.72;2081026;28;20095;-75
2023/04/16 05:45:05;;;;;;;20.33;9.65;;;;;;;18.68;100.00;100952.03;2078116;28;20057;-74
2023/04/16 05:46:26;;;;;;;17.80;7.78;;;;;;;18.91;100.00;100957.00;2080895;28;20104;-74
2023/04/16 05:47:49;;;;;;;17.65;8.93;;;;;;;19.11;100.00;100950.44;2075368;28;20489;-74
2023/04/16 05:49:11;;;;;;;20.50;8.77;;;;;;;19.33;100.00;100947.41;2077977;28;20041;-74
2023/04/16 05:50:33;;;;;;;17.80;7.95;;;;;;;19.52;100.00;100934.59;2077017;28;20061;-74
2023/04/16 05:51:56;;;;;;;20.60;8.40;;;;;;;19.78;100.00;100935.88;2075616;28;20049;-75
2023/04/16 05:53:19;;;;;;;20.50;8.10;;;;;;;20.08;100.00;100929.03;2078130;28;20042;-74
2023/04/16 05:54:43;;;;;;;16.60;8.00;;;;;;;20.38;100.00;100929.31;2072581;28;20081;-75
2023/04/16 05:56:05;;;;;;;18.40;8.27;;;;;;;20.64;100.00;100926.94;2077766;28;20044;-75
2023/04/16 05:57:27;;;;;;;;;;;;;;;20.80;100.00;100927.47;2072459;28;20049;-74
2023/04/16 05:58:48;;;;;;;16.80;7.68;;;;;;;20.90;100.00;100924.53;2085588;28;19925;-75
2023/04/16 06:00:11;;;;;;;20.58;8.32;;;;;;;20.94;100.00;100930.69;2074321;28;20042;-74
2023/04/16 06:01:35;;;;;;;19.25;7.72;;;;;;;21.01;100.00;100925.13;2083368;28;20060;-75
2023/04/16 06:02:57;;;;;;;19.02;7.82;;;;;;;21.14;100.00;100927.50;2079861;28;20068;-75
2023/04/16 06:04:20;;;;;;;19.80;7.75;;;;;;;21.25;100.00;100928.19;2077258;28;20128;-74
2023/04/16 06:05:42;;;;;;;20.42;8.13;;;;;;;21.37;100.00;100920.69;2069738;28;20045;-75
2023/04/16 06:07:05;;;;;;;18.95;8.15;;;;;;;21.57;100.00;100930.00;2072738;28;20056;-75
2023/04/16 06:08:27;;;;;;;16.30;7.47;;;;;;;21.64;100.00;100926.22;2077960;28;20037;-75
2023/04/16 06:09:51;;;;;;;16.00;6.65;;;;;;;21.71;100.00;100933.22;2065295;28;20046;-75
2023/04/16 06:11:13;;;;;;;15.30;6.82;;;;;;;21.70;100.00;100931.44;2075118;28;20052;-75
2023/04/16 06:12:35;;;;;;;19.52;8.05;;;;;;;21.70;100.00;100934.13;2077349;28;20045;-75
2023/04/16 06:13:57;;;;;;;19.55;7.85;;;;;;;21.69;100.00;100932.34;2063970;28;20498;-74